Nbp Island — V2FH3 — position and weather

sailwx.info

Track history (hours):
 
Tides and Currents Weather Stations Pressure Air Temp Water Temp Dewpoint Dewpoint Depression Visibility Wind Speed Wind Dir Waves Ship Positions

Nbp Island

Last reported at 2017-Feb-10 16:07 UTC. Time now 2017-Feb-20 14:08 UTC.
Position N 36°58' E 004°43'.
Warning: this ship's position is 9 days out of date.

Length 107 m; draft 7.9 m.

Type: Cargo ship. MMSI: 305674000.

Date/timePositionNaut miles runAvg speedWind from/ knotsBaromVisibWave heightAir tempDewpointWater temp
2017-Feb-10 16:07N 36°58' E 004°43'3312.6
2017-Feb-10 13:32N 36°60' E 004°02'1312.8
2017-Feb-10 12:33N 36°60' E 003°46'5510.9
2017-Feb-10 07:28N 36°58' E 002°37'36211.3
2017-Feb-08 23:29N 36°03' W 004°48'1313.4
2017-Feb-08 22:33N 36°01' W 005°03'1312.8
2017-Feb-08 21:33N 35°59' W 005°19'1312.8
2017-Feb-08 20:33N 35°56' W 005°34'255 9.4
2017-Feb-07 17:33N 38°18' W 009°59'1111.2
2017-Feb-07 16:33N 38°29' W 010°02'1111.2
2017-Feb-07 15:33N 38°40' W 010°06'1111.2
2017-Feb-07 14:33N 38°51' W 010°07'1111.4
2017-Feb-07 13:33N 39°03' W 010°07'  
2017-Feb-04 09:08N 49°41' W 003°38'5 8.0
2017-Feb-04 08:32N 49°44' W 003°33'1010.6
2017-Feb-04 07:33N 49°49' W 003°19'1211.8
2017-Feb-04 06:33N 49°56' W 003°04'1212.4
2017-Feb-04 05:33N 50°00' W 002°46'92 9.0
2017-Feb-03 19:22N 50°26' W 000°28'810.3
2017-Feb-03 18:33N 50°28' W 000°15'1010.3
2017-Feb-03 17:33N 50°31' E 000°01'1010.2
2017-Feb-03 16:33N 50°34' E 000°16'1010.0
2017-Feb-03 15:33N 50°37' E 000°31'9 9.4
2017-Feb-03 14:33N 50°41' E 000°44'13 9.6
2017-Feb-03 13:10N 50°49' E 001°01'610.3
2017-Feb-03 12:33N 50°53' E 001°08'1211.5
2017-Feb-03 11:33N 51°01' E 001°22'1212.5
2017-Feb-03 10:33N 51°09' E 001°37'1211.8
2017-Feb-03 09:33N 51°18' E 001°50'1110.8
2017-Feb-03 08:33N 51°27' E 001°59'1010.0
2017-Feb-03 07:33N 51°35' E 002°09'6010.0
2017-Feb-03 01:31N 52°25' E 003°03'359 9.7
2017-Feb-01 12:32N 57°22' E 008°55'1111.3
2017-Feb-01 11:33N 57°27' E 009°12'1211.5
2017-Feb-01 10:33N 57°33' E 009°31'1211.8
2017-Feb-01 09:32N 57°38' E 009°51'1111.7
2017-Feb-01 08:33N 57°43' E 010°11'1211.7
2017-Feb-01 07:33N 57°47' E 010°32'8 8.1
2017-Feb-01 06:33N 57°45' E 010°46'7 5.3
2017-Feb-01 05:14N 57°41' E 010°36'0 0.0
2017-Feb-01 04:26N 57°41' E 010°36'0 0.0
2017-Feb-01 03:32N 57°41' E 010°36'0 0.0
2017-Feb-01 02:32N 57°41' E 010°36'0 0.0
2017-Feb-01 01:23N 57°41' E 010°36'0 0.0
2017-Feb-01 00:32N 57°41' E 010°36'0 0.0
2017-Jan-31 23:32N 57°41' E 010°36'0 0.0
2017-Jan-31 22:08N 57°41' E 010°36'0 0.0
2017-Jan-31 21:32N 57°41' E 010°36'0 0.0
2017-Jan-31 20:23N 57°41' E 010°36'0 0.0
2017-Jan-31 19:32N 57°41' E 010°36'0 0.0
2017-Jan-31 18:26N 57°41' E 010°36'0 0.1
2017-Jan-31 17:32N 57°41' E 010°36'0 0.0
2017-Jan-31 16:32N 57°41' E 010°36'  
Track history (hours):
 
Tides and Currents Weather Stations Pressure Air Temp Water Temp Dewpoint Dewpoint Depression Visibility Wind Speed Wind Dir Waves Ship Positions

Nbp Island

Last reported at 2017-Feb-10 16:07 UTC. Time now 2017-Feb-20 14:08 UTC.
Position N 36°58' E 004°43'.
Warning: this ship's position is 9 days out of date.

Length 107 m; draft 7.9 m.

Type: Cargo ship. MMSI: 305674000.

Date/timePositionNaut miles runAvg speedWind from/ knotsBaromVisibWave heightAir tempDewpointWater temp
2017-Feb-10 16:07N 36°58' E 004°43'3312.6
2017-Feb-10 13:32N 36°60' E 004°02'1312.8
2017-Feb-10 12:33N 36°60' E 003°46'5510.9
2017-Feb-10 07:28N 36°58' E 002°37'36211.3
2017-Feb-08 23:29N 36°03' W 004°48'1313.4
2017-Feb-08 22:33N 36°01' W 005°03'1312.8
2017-Feb-08 21:33N 35°59' W 005°19'1312.8
2017-Feb-08 20:33N 35°56' W 005°34'255 9.4
2017-Feb-07 17:33N 38°18' W 009°59'1111.2
2017-Feb-07 16:33N 38°29' W 010°02'1111.2
2017-Feb-07 15:33N 38°40' W 010°06'1111.2
2017-Feb-07 14:33N 38°51' W 010°07'1111.4
2017-Feb-07 13:33N 39°03' W 010°07'  
2017-Feb-04 09:08N 49°41' W 003°38'5 8.0
2017-Feb-04 08:32N 49°44' W 003°33'1010.6
2017-Feb-04 07:33N 49°49' W 003°19'1211.8
2017-Feb-04 06:33N 49°56' W 003°04'1212.4
2017-Feb-04 05:33N 50°00' W 002°46'92 9.0
2017-Feb-03 19:22N 50°26' W 000°28'810.3
2017-Feb-03 18:33N 50°28' W 000°15'1010.3
2017-Feb-03 17:33N 50°31' E 000°01'1010.2
2017-Feb-03 16:33N 50°34' E 000°16'1010.0
2017-Feb-03 15:33N 50°37' E 000°31'9 9.4
2017-Feb-03 14:33N 50°41' E 000°44'13 9.6
2017-Feb-03 13:10N 50°49' E 001°01'610.3
2017-Feb-03 12:33N 50°53' E 001°08'1211.5
2017-Feb-03 11:33N 51°01' E 001°22'1212.5
2017-Feb-03 10:33N 51°09' E 001°37'1211.8
2017-Feb-03 09:33N 51°18' E 001°50'1110.8
2017-Feb-03 08:33N 51°27' E 001°59'1010.0
2017-Feb-03 07:33N 51°35' E 002°09'6010.0
2017-Feb-03 01:31N 52°25' E 003°03'359 9.7
2017-Feb-01 12:32N 57°22' E 008°55'1111.3
2017-Feb-01 11:33N 57°27' E 009°12'1211.5
2017-Feb-01 10:33N 57°33' E 009°31'1211.8
2017-Feb-01 09:32N 57°38' E 009°51'1111.7
2017-Feb-01 08:33N 57°43' E 010°11'1211.7
2017-Feb-01 07:33N 57°47' E 010°32'8 8.1
2017-Feb-01 06:33N 57°45' E 010°46'7 5.3
2017-Feb-01 05:14N 57°41' E 010°36'0 0.0
2017-Feb-01 04:26N 57°41' E 010°36'0 0.0
2017-Feb-01 03:32N 57°41' E 010°36'0 0.0
2017-Feb-01 02:32N 57°41' E 010°36'0 0.0
2017-Feb-01 01:23N 57°41' E 010°36'0 0.0
2017-Feb-01 00:32N 57°41' E 010°36'0 0.0
2017-Jan-31 23:32N 57°41' E 010°36'0 0.0
2017-Jan-31 22:08N 57°41' E 010°36'0 0.0
2017-Jan-31 21:32N 57°41' E 010°36'0 0.0
2017-Jan-31 20:23N 57°41' E 010°36'0 0.0
2017-Jan-31 19:32N 57°41' E 010°36'0 0.0
2017-Jan-31 18:26N 57°41' E 010°36'0 0.1
2017-Jan-31 17:32N 57°41' E 010°36'0 0.0
2017-Jan-31 16:32N 57°41' E 010°36'  

Dump ship's entire track history